Terminal Aerodrome Forecast
Issued by NWS

Home | Current Version | Previous Version | Text Only | Print | Product List | Glossary On
Versions: 1 2 3 4 5 6 7 8 9 10 11 12 13 14 15 16 17 18 19 20
000
FTAK31 PAJN 220500
TAFAYA
TAF
PAYA 220532Z 2206/2306 09006KT P6SM VCSH FEW020 BKN035 BKN070
      TEMPO 2206/2210 6SM -SHRA BR BKN020 OVC030
     FM222000 08010KT 6SM -SHRA BR SCT015 BKN025 OVC050
      AMD LTD TO CLD VIS AND WIND 2206/2210=

USA.gov is the U.S. government's official web portal to all federal, state and local government web resources and services.